createdAt,value
2024-02-23T00:00:56.996Z,0
2024-02-23T00:02:03.100Z,0
2024-02-23T00:03:09.443Z,0
2024-02-23T00:04:14.563Z,0
2024-02-23T00:05:20.667Z,0
2024-02-23T00:06:26.772Z,0
2024-02-23T00:07:32.876Z,0
2024-02-23T00:08:38.981Z,0
2024-02-23T00:09:45.086Z,0
2024-02-23T00:10:51.190Z,0
2024-02-23T00:11:57.295Z,0
2024-02-23T00:13:03.400Z,0
2024-02-23T00:14:09.504Z,0
2024-02-23T00:15:15.608Z,0
2024-02-23T00:16:21.711Z,0
2024-02-23T00:17:27.815Z,0
2024-02-23T00:18:34.159Z,0
2024-02-23T00:19:39.280Z,0
2024-02-23T00:20:45.384Z,0
2024-02-23T00:21:51.488Z,0
2024-02-23T00:22:57.594Z,0
2024-02-23T00:24:03.699Z,0
2024-02-23T00:25:09.803Z,0
2024-02-23T00:26:15.907Z,0
2024-02-23T00:27:22.012Z,0
2024-02-23T00:28:28.117Z,0
2024-02-23T00:29:34.221Z,0
2024-02-23T00:30:40.324Z,0
2024-02-23T00:31:46.428Z,0
2024-02-23T00:32:52.531Z,0
2024-02-23T00:33:58.875Z,0
2024-02-23T00:35:03.996Z,0
2024-02-23T00:36:10.100Z,0
2024-02-23T00:37:16.204Z,0
2024-02-23T00:38:21.330Z,0
2024-02-23T00:39:27.434Z,0
2024-02-23T00:40:33.539Z,0
2024-02-23T00:41:39.642Z,0
2024-02-23T00:42:45.746Z,0
2024-02-23T00:43:51.849Z,0
2024-02-23T00:44:58.182Z,0
2024-02-23T00:46:04.287Z,0
2024-02-23T00:47:10.392Z,0
2024-02-23T00:48:16.496Z,0
2024-02-23T00:49:22.601Z,0
2024-02-23T00:50:28.705Z,0
2024-02-23T00:51:34.810Z,0
2024-02-23T00:52:39.930Z,0
2024-02-23T00:53:46.034Z,0
2024-02-23T00:54:52.139Z,0
2024-02-23T00:55:58.243Z,0
2024-02-23T00:57:04.347Z,0
2024-02-23T00:58:10.451Z,0
2024-02-23T00:59:16.554Z,0
2024-02-23T01:00:22.899Z,0
2024-02-23T01:01:29.003Z,0
2024-02-23T01:02:35.107Z,0
2024-02-23T01:03:41.212Z,0
2024-02-23T01:04:47.316Z,0
2024-02-23T01:05:53.420Z,0
2024-02-23T01:06:58.541Z,0
2024-02-23T01:08:04.645Z,0
2024-02-23T01:09:10.750Z,0
2024-02-23T01:10:16.854Z,0
2024-02-23T01:11:22.958Z,0
2024-02-23T01:12:29.062Z,0
2024-02-23T01:13:35.165Z,0
2024-02-23T01:14:41.269Z,0
2024-02-23T01:15:47.613Z,0
2024-02-23T01:16:53.718Z,0
2024-02-23T01:17:59.823Z,0
2024-02-23T01:19:05.927Z,0
2024-02-23T01:20:12.031Z,0
2024-02-23T01:21:17.152Z,0
2024-02-23T01:22:23.257Z,0
2024-02-23T01:23:29.361Z,0
2024-02-23T01:24:35.465Z,0
2024-02-23T01:25:41.570Z,0
2024-02-23T01:26:47.675Z,0
2024-02-23T01:27:53.778Z,0
2024-02-23T01:28:59.881Z,0
2024-02-23T01:30:05.985Z,0
2024-02-23T01:31:12.327Z,0
2024-02-23T01:32:18.432Z,0
2024-02-23T01:33:24.536Z,0
2024-02-23T01:34:30.640Z,0
2024-02-23T01:35:35.736Z,0
2024-02-23T01:36:41.866Z,0
2024-02-23T01:37:47.970Z,0
2024-02-23T01:38:54.075Z,0
2024-02-23T01:40:00.179Z,0
2024-02-23T01:41:06.283Z,0
2024-02-23T01:42:12.387Z,0
2024-02-23T01:43:18.491Z,0
2024-02-23T01:44:24.594Z,0
2024-02-23T01:45:30.698Z,0
2024-02-23T01:46:37.043Z,0
2024-02-23T01:47:43.147Z,0
2024-02-23T01:48:49.251Z,0
2024-02-23T01:49:54.372Z,0
2024-02-23T01:51:00.476Z,0
2024-02-23T01:52:06.581Z,0
2024-02-23T01:53:12.685Z,0
2024-02-23T01:54:18.789Z,0
2024-02-23T01:55:24.894Z,0
2024-02-23T01:56:30.998Z,0
2024-02-23T01:57:37.103Z,0
2024-02-23T01:58:43.206Z,0
2024-02-23T01:59:49.309Z,0
2024-02-23T02:00:55.413Z,0
2024-02-23T02:02:01.758Z,0
2024-02-23T02:03:07.863Z,0
2024-02-23T02:04:12.983Z,0
2024-02-23T02:05:19.088Z,0
2024-02-23T02:06:25.192Z,0
2024-02-23T02:07:31.296Z,0
2024-02-23T02:08:37.401Z,0
2024-02-23T02:09:43.505Z,0
2024-02-23T02:10:49.610Z,0
2024-02-23T02:11:55.714Z,0
2024-02-23T02:13:01.818Z,0
2024-02-23T02:14:07.922Z,0
2024-02-23T02:15:14.026Z,0
2024-02-23T02:16:20.129Z,0
2024-02-23T02:17:26.474Z,0
2024-02-23T02:18:31.594Z,0
2024-02-23T02:19:37.699Z,0
2024-02-23T02:20:43.803Z,0
2024-02-23T02:21:49.908Z,0
2024-02-23T02:22:56.012Z,0
2024-02-23T02:24:02.117Z,0
2024-02-23T02:25:08.221Z,0
2024-02-23T02:26:14.326Z,0
2024-02-23T02:27:20.430Z,0
2024-02-23T02:28:26.535Z,0
2024-02-23T02:29:32.638Z,0
2024-02-23T02:30:38.742Z,0
2024-02-23T02:31:44.845Z,0
2024-02-23T02:32:51.190Z,0
2024-02-23T02:33:56.310Z,0
2024-02-23T02:35:02.414Z,0
2024-02-23T02:36:08.518Z,0
2024-02-23T02:37:14.623Z,0
2024-02-23T02:38:20.727Z,0
2024-02-23T02:39:26.832Z,0
2024-02-23T02:40:32.936Z,0
2024-02-23T02:41:39.040Z,0
2024-02-23T02:42:45.145Z,0
2024-02-23T02:43:51.250Z,0
2024-02-23T02:44:57.353Z,0
2024-02-23T02:46:03.456Z,0
2024-02-23T02:47:09.560Z,0
2024-02-23T02:48:15.905Z,0
2024-02-23T02:49:21.025Z,0
2024-02-23T02:50:27.129Z,0
2024-02-23T02:51:33.234Z,0
2024-02-23T02:52:39.338Z,0
2024-02-23T02:53:45.443Z,0
2024-02-23T02:54:51.548Z,0
2024-02-23T02:55:57.652Z,0
2024-02-23T02:57:03.757Z,0
2024-02-23T02:58:09.861Z,0
2024-02-23T02:59:15.966Z,0
2024-02-23T03:00:22.069Z,0
2024-02-23T03:01:28.173Z,0
2024-02-23T03:02:34.276Z,0
2024-02-23T03:03:40.621Z,0
2024-02-23T03:04:45.742Z,0
2024-02-23T03:05:51.846Z,0
2024-02-23T03:06:57.951Z,0
2024-02-23T03:08:04.055Z,0
2024-02-23T03:09:10.160Z,0
2024-02-23T03:10:16.265Z,0
2024-02-23T03:11:22.370Z,0
2024-02-23T03:12:28.474Z,0
2024-02-23T03:13:34.579Z,0
2024-02-23T03:14:40.683Z,0
2024-02-23T03:15:46.786Z,0
2024-02-23T03:16:52.890Z,0
2024-02-23T03:17:58.994Z,0
2024-02-23T03:19:05.337Z,0
2024-02-23T03:20:10.458Z,0
2024-02-23T03:21:16.563Z,0
2024-02-23T03:22:22.667Z,0
2024-02-23T03:23:28.771Z,0
2024-02-23T03:24:34.876Z,0
2024-02-23T03:25:40.980Z,0
2024-02-23T03:26:47.084Z,0
2024-02-23T03:27:53.189Z,0
2024-02-23T03:28:59.293Z,0
2024-02-23T03:30:05.398Z,0
2024-02-23T03:31:11.502Z,0
2024-02-23T03:32:17.605Z,0
2024-02-23T03:33:23.708Z,0
2024-02-23T03:34:30.010Z,0
2024-02-23T03:35:35.176Z,0
2024-02-23T03:36:41.280Z,0
2024-02-23T03:37:47.384Z,0
2024-02-23T03:38:53.489Z,0
2024-02-23T03:39:59.593Z,0
2024-02-23T03:41:05.698Z,0
2024-02-23T03:42:11.802Z,0
2024-02-23T03:43:17.907Z,0
2024-02-23T03:44:24.011Z,0
2024-02-23T03:45:30.116Z,0
2024-02-23T03:46:36.219Z,0
2024-02-23T03:47:42.322Z,0
2024-02-23T03:48:48.426Z,0
2024-02-23T03:49:54.772Z,0
2024-02-23T03:50:59.893Z,0
2024-02-23T03:52:05.997Z,0
2024-02-23T03:53:12.102Z,0
2024-02-23T03:54:18.206Z,0
2024-02-23T03:55:24.311Z,0
2024-02-23T03:56:30.416Z,0
2024-02-23T03:57:36.520Z,0
2024-02-23T03:58:42.625Z,0
2024-02-23T03:59:48.730Z,0
2024-02-23T04:00:54.835Z,0
2024-02-23T04:02:00.938Z,0
2024-02-23T04:03:07.042Z,0
2024-02-23T04:04:13.146Z,0
2024-02-23T04:05:19.490Z,0
2024-02-23T04:06:24.610Z,0
2024-02-23T04:07:30.715Z,0
2024-02-23T04:08:36.820Z,0
2024-02-23T04:09:42.924Z,0
2024-02-23T04:10:49.029Z,0
2024-02-23T04:11:55.133Z,0
2024-02-23T04:13:01.238Z,0
2024-02-23T04:14:07.342Z,0
2024-02-23T04:15:13.447Z,0
2024-02-23T04:16:19.551Z,0
2024-02-23T04:17:25.655Z,0
2024-02-23T04:18:31.758Z,0
2024-02-23T04:19:37.862Z,0
2024-02-23T04:20:44.207Z,0
2024-02-23T04:21:49.333Z,0
2024-02-23T04:22:55.437Z,0
2024-02-23T04:24:01.542Z,0
2024-02-23T04:25:07.646Z,0
2024-02-23T04:26:13.751Z,0
2024-02-23T04:27:19.855Z,0
2024-02-23T04:28:25.959Z,0
2024-02-23T04:29:32.064Z,0
2024-02-23T04:30:38.167Z,0
2024-02-23T04:31:44.270Z,0
2024-02-23T04:32:50.374Z,0
2024-02-23T04:33:56.724Z,0
2024-02-23T04:35:02.829Z,0
2024-02-23T04:36:07.949Z,0
2024-02-23T04:37:14.054Z,0
2024-02-23T04:38:20.158Z,0
2024-02-23T04:39:26.262Z,0
2024-02-23T04:40:32.367Z,0
2024-02-23T04:41:38.471Z,0
2024-02-23T04:42:44.575Z,0
2024-02-23T04:43:50.680Z,0
2024-02-23T04:44:56.784Z,0
2024-02-23T04:46:02.888Z,0
2024-02-23T04:47:08.991Z,0
2024-02-23T04:48:15.094Z,0
2024-02-23T04:49:21.440Z,0
2024-02-23T04:50:26.561Z,0
2024-02-23T04:51:32.665Z,0
2024-02-23T04:52:38.770Z,0
2024-02-23T04:53:44.837Z,0
2024-02-23T04:54:50.979Z,0
2024-02-23T04:55:57.083Z,0
2024-02-23T04:57:03.188Z,0
2024-02-23T04:58:09.292Z,0
2024-02-23T04:59:15.396Z,0
2024-02-23T05:00:21.501Z,0
2024-02-23T05:01:27.604Z,0
2024-02-23T05:02:33.708Z,0
2024-02-23T05:03:39.811Z,0
2024-02-23T05:04:46.157Z,0
2024-02-23T05:05:51.278Z,0
2024-02-23T05:06:57.382Z,0
2024-02-23T05:08:03.487Z,0
2024-02-23T05:09:09.591Z,0
2024-02-23T05:10:15.696Z,0
2024-02-23T05:11:21.800Z,0
2024-02-23T05:12:27.905Z,0
2024-02-23T05:13:34.009Z,0
2024-02-23T05:14:40.114Z,0
2024-02-23T05:15:46.218Z,0
2024-02-23T05:16:52.322Z,0
2024-02-23T05:17:58.425Z,0
2024-02-23T05:19:04.528Z,0
2024-02-23T05:20:10.873Z,0
2024-02-23T05:21:15.994Z,0
2024-02-23T05:22:22.098Z,0
2024-02-23T05:23:28.203Z,0
2024-02-23T05:24:34.308Z,0
2024-02-23T05:25:40.412Z,0
2024-02-23T05:26:46.517Z,0
2024-02-23T05:27:52.622Z,0
2024-02-23T05:28:58.726Z,0
2024-02-23T05:30:04.831Z,0
2024-02-23T05:31:10.935Z,0
2024-02-23T05:32:17.039Z,0
2024-02-23T05:33:23.143Z,0
2024-02-23T05:34:29.246Z,0
2024-02-23T05:35:35.350Z,0
2024-02-23T05:36:41.652Z,0
2024-02-23T05:37:46.947Z,0
2024-02-23T05:38:53.051Z,0
2024-02-23T05:39:59.156Z,0
2024-02-23T05:41:05.259Z,0
2024-02-23T05:42:11.362Z,1
2024-02-23T05:43:17.484Z,1
2024-02-23T05:44:23.588Z,0
2024-02-23T05:45:29.692Z,2
2024-02-23T05:46:35.819Z,1
2024-02-23T05:47:41.923Z,3
2024-02-23T05:48:48.242Z,4
2024-02-23T05:49:54.347Z,3
2024-02-23T05:51:00.513Z,9
2024-02-23T05:52:05.634Z,8
2024-02-23T05:53:11.739Z,9
2024-02-23T05:54:17.843Z,7
2024-02-23T05:55:23.948Z,10
2024-02-23T05:56:30.052Z,16
2024-02-23T05:57:36.215Z,14
2024-02-23T05:58:42.368Z,15
2024-02-23T05:59:48.472Z,22
2024-02-23T06:00:54.639Z,23
2024-02-23T06:02:00.792Z,26
2024-02-23T06:03:06.896Z,29
2024-02-23T06:04:13.063Z,30
2024-02-23T06:05:19.217Z,36
2024-02-23T06:06:24.337Z,36
2024-02-23T06:07:30.442Z,43
2024-02-23T06:08:36.546Z,45
2024-02-23T06:09:42.652Z,54
2024-02-23T06:10:48.766Z,54
2024-02-23T06:11:54.920Z,56
2024-02-23T06:13:01.024Z,56
2024-02-23T06:14:07.190Z,62
2024-02-23T06:15:13.344Z,58
2024-02-23T06:16:19.448Z,51
2024-02-23T06:17:25.615Z,42
2024-02-23T06:18:31.769Z,42
2024-02-23T06:19:37.873Z,48
2024-02-23T06:20:42.994Z,54
2024-02-23T06:21:49.099Z,59
2024-02-23T06:22:55.203Z,62
2024-02-23T06:24:01.318Z,61
2024-02-23T06:25:07.472Z,57
2024-02-23T06:26:13.577Z,62
2024-02-23T06:27:19.743Z,66
2024-02-23T06:28:25.897Z,77
2024-02-23T06:29:32.002Z,82
2024-02-23T06:30:38.169Z,85
2024-02-23T06:31:44.322Z,91
2024-02-23T06:32:50.427Z,99
2024-02-23T06:33:56.593Z,107
2024-02-23T06:35:01.714Z,115
2024-02-23T06:36:07.818Z,122
2024-02-23T06:37:13.923Z,131
2024-02-23T06:38:20.027Z,131
2024-02-23T06:39:26.133Z,134
2024-02-23T06:40:32.298Z,128
2024-02-23T06:41:38.452Z,128
2024-02-23T06:42:44.556Z,129
2024-02-23T06:43:50.722Z,129
2024-02-23T06:44:56.877Z,132
2024-02-23T06:46:02.981Z,134
2024-02-23T06:47:09.148Z,136
2024-02-23T06:48:15.302Z,140
2024-02-23T06:49:20.423Z,146
2024-02-23T06:50:26.527Z,156
2024-02-23T06:51:32.632Z,165
2024-02-23T06:52:38.737Z,174
2024-02-23T06:53:44.851Z,192
2024-02-23T06:54:51.005Z,204
2024-02-23T06:55:57.110Z,224
2024-02-23T06:57:03.276Z,246
2024-02-23T06:58:09.430Z,261
2024-02-23T06:59:15.535Z,269
2024-02-23T07:00:21.701Z,267
2024-02-23T07:01:27.856Z,272
2024-02-23T07:02:33.960Z,293
2024-02-23T07:03:39.081Z,321
2024-02-23T07:04:45.185Z,293
2024-02-23T07:05:51.290Z,288
2024-02-23T07:06:57.405Z,320
2024-02-23T07:08:03.559Z,352
2024-02-23T07:09:09.663Z,405
2024-02-23T07:10:15.830Z,446
2024-02-23T07:11:21.984Z,481
2024-02-23T07:12:28.088Z,495
2024-02-23T07:13:34.255Z,517
2024-02-23T07:14:40.409Z,541
2024-02-23T07:15:46.513Z,517
2024-02-23T07:16:52.680Z,504
2024-02-23T07:17:57.800Z,493
2024-02-23T07:19:03.905Z,480
2024-02-23T07:20:10.010Z,480
2024-02-23T07:21:16.115Z,473
2024-02-23T07:22:22.219Z,470
2024-02-23T07:23:28.383Z,478
2024-02-23T07:24:34.537Z,487
2024-02-23T07:25:40.642Z,492
2024-02-23T07:26:46.808Z,511
2024-02-23T07:27:52.962Z,517
2024-02-23T07:28:59.066Z,530
2024-02-23T07:30:05.233Z,580
2024-02-23T07:31:11.387Z,565
2024-02-23T07:32:16.508Z,574
2024-02-23T07:33:22.612Z,586
2024-02-23T07:34:28.717Z,595
2024-02-23T07:35:34.822Z,622
2024-02-23T07:36:40.937Z,618
2024-02-23T07:37:47.091Z,595
2024-02-23T07:38:53.196Z,594
2024-02-23T07:39:59.362Z,599
2024-02-23T07:41:05.517Z,606
2024-02-23T07:42:11.621Z,608
2024-02-23T07:43:17.788Z,599
2024-02-23T07:44:23.941Z,585
2024-02-23T07:45:30.046Z,585
2024-02-23T07:46:35.167Z,592
2024-02-23T07:47:41.271Z,604
2024-02-23T07:48:47.376Z,610
2024-02-23T07:49:53.491Z,588
2024-02-23T07:50:59.645Z,588
2024-02-23T07:52:05.749Z,562
2024-02-23T07:53:11.916Z,549
2024-02-23T07:54:18.070Z,560
2024-02-23T07:55:24.174Z,594
2024-02-23T07:56:30.342Z,616
2024-02-23T07:57:36.496Z,636
2024-02-23T07:58:42.600Z,631
2024-02-23T07:59:48.767Z,640
2024-02-23T08:00:53.888Z,638
2024-02-23T08:01:59.992Z,647
2024-02-23T08:03:05.118Z,648
2024-02-23T08:04:11.222Z,667
2024-02-23T08:05:17.326Z,708
2024-02-23T08:06:23.431Z,719
2024-02-23T08:07:29.536Z,744
2024-02-23T08:08:35.641Z,784
2024-02-23T08:09:41.747Z,811
2024-02-23T08:10:47.901Z,820
2024-02-23T08:11:54.006Z,850
2024-02-23T08:13:00.172Z,887
2024-02-23T08:14:06.326Z,911
2024-02-23T08:15:12.431Z,905
2024-02-23T08:16:18.598Z,901
2024-02-23T08:17:23.718Z,926
2024-02-23T08:18:29.823Z,940
2024-02-23T08:19:35.927Z,939
2024-02-23T08:20:42.032Z,954
2024-02-23T08:21:48.136Z,985
2024-02-23T08:22:54.301Z,997
2024-02-23T08:24:00.455Z,1031
2024-02-23T08:25:06.559Z,1100
2024-02-23T08:26:12.726Z,1180
2024-02-23T08:27:18.880Z,1225
2024-02-23T08:28:24.984Z,1252
2024-02-23T08:29:31.151Z,1297
2024-02-23T08:30:37.305Z,1335
2024-02-23T08:31:42.426Z,1382
2024-02-23T08:32:48.530Z,1396
2024-02-23T08:33:54.634Z,1405
2024-02-23T08:35:00.739Z,1432
2024-02-23T08:36:06.854Z,1418
2024-02-23T08:37:13.008Z,1450
2024-02-23T08:38:19.112Z,1491
2024-02-23T08:39:25.279Z,1544
2024-02-23T08:40:31.433Z,1544
2024-02-23T08:41:37.537Z,1538
2024-02-23T08:42:43.704Z,1560
2024-02-23T08:43:49.857Z,1637
2024-02-23T08:44:55.962Z,1622
2024-02-23T08:46:01.083Z,1589
2024-02-23T08:47:07.187Z,1575
2024-02-23T08:48:13.292Z,1561
2024-02-23T08:49:19.407Z,1560
2024-02-23T08:50:25.561Z,1548
2024-02-23T08:51:31.666Z,1555
2024-02-23T08:52:37.832Z,1567
2024-02-23T08:53:43.986Z,1552
2024-02-23T08:54:50.091Z,1544
2024-02-23T08:55:56.257Z,1527
2024-02-23T08:57:02.411Z,1570
2024-02-23T08:58:08.515Z,1649
2024-02-23T08:59:14.682Z,1632
2024-02-23T09:00:19.803Z,1619
2024-02-23T09:01:25.907Z,1615
2024-02-23T09:02:32.012Z,1650
2024-02-23T09:03:38.116Z,1699
2024-02-23T09:04:44.221Z,1667
2024-02-23T09:05:50.385Z,1666
2024-02-23T09:06:56.539Z,1698
2024-02-23T09:08:02.644Z,1737
2024-02-23T09:09:08.810Z,1782
2024-02-23T09:10:14.965Z,1783
2024-02-23T09:11:21.069Z,1801
2024-02-23T09:12:27.236Z,1788
2024-02-23T09:13:33.390Z,1759
2024-02-23T09:14:38.510Z,1692
2024-02-23T09:15:44.615Z,1635
2024-02-23T09:16:50.719Z,1619
2024-02-23T09:17:56.824Z,1642
2024-02-23T09:19:02.940Z,1675
2024-02-23T09:20:09.094Z,1705
2024-02-23T09:21:15.198Z,1716
2024-02-23T09:22:21.365Z,1679
2024-02-23T09:23:27.519Z,1642
2024-02-23T09:24:33.623Z,1701
2024-02-23T09:25:39.789Z,1743
2024-02-23T09:26:45.944Z,1661
2024-02-23T09:27:52.048Z,1672
2024-02-23T09:28:57.169Z,1909
2024-02-23T09:30:03.274Z,1943
2024-02-23T09:31:09.378Z,1895
2024-02-23T09:32:15.493Z,1932
2024-02-23T09:33:21.647Z,1981
2024-02-23T09:34:27.752Z,2027
2024-02-23T09:35:33.918Z,2000
2024-02-23T09:36:40.073Z,2043
2024-02-23T09:37:46.177Z,2088
2024-02-23T09:38:52.343Z,2114
2024-02-23T09:39:58.498Z,2149
2024-02-23T09:41:04.602Z,2131
2024-02-23T09:42:10.769Z,2118
2024-02-23T09:43:15.890Z,2172
2024-02-23T09:44:21.995Z,2256
2024-02-23T09:45:28.100Z,2249
2024-02-23T09:46:34.205Z,2295
2024-02-23T09:47:40.310Z,2305
2024-02-23T09:48:46.473Z,2364
2024-02-23T09:49:52.628Z,2370
2024-02-23T09:50:58.732Z,2373
2024-02-23T09:52:04.899Z,2538
2024-02-23T09:53:11.053Z,2426
2024-02-23T09:54:17.158Z,2394
2024-02-23T09:55:23.324Z,2430
2024-02-23T09:56:29.478Z,2397
2024-02-23T09:57:34.599Z,2337
2024-02-23T09:58:40.703Z,2281
2024-02-23T09:59:46.808Z,2228
2024-02-23T10:00:52.912Z,2224
2024-02-23T10:01:59.028Z,2257
2024-02-23T10:03:05.181Z,2265
2024-02-23T10:04:11.286Z,2253
2024-02-23T10:05:17.453Z,2243
2024-02-23T10:06:23.607Z,2223
2024-02-23T10:07:29.711Z,2230
2024-02-23T10:08:35.878Z,2277
2024-02-23T10:09:42.032Z,2359
2024-02-23T10:10:48.137Z,2351
2024-02-23T10:11:53.257Z,2395
2024-02-23T10:12:59.362Z,2458
2024-02-23T10:14:05.467Z,2426
2024-02-23T10:15:11.581Z,2595
2024-02-23T10:16:17.735Z,2705
2024-02-23T10:17:23.840Z,2697
2024-02-23T10:18:30.006Z,2772
2024-02-23T10:19:36.161Z,2676
2024-02-23T10:20:42.266Z,2647
2024-02-23T10:21:48.432Z,2924
2024-02-23T10:22:54.586Z,2933
2024-02-23T10:24:00.690Z,2758
2024-02-23T10:25:06.857Z,2767
2024-02-23T10:26:11.978Z,2675
2024-02-23T10:27:18.082Z,2653
2024-02-23T10:28:24.187Z,2622
2024-02-23T10:29:30.291Z,2746
2024-02-23T10:30:36.396Z,2730
2024-02-23T10:31:42.560Z,2632
2024-02-23T10:32:48.714Z,2498
2024-02-23T10:33:54.819Z,2456
2024-02-23T10:35:00.985Z,2386
2024-02-23T10:36:07.139Z,2361
2024-02-23T10:37:13.244Z,2353
2024-02-23T10:38:19.410Z,2460
2024-02-23T10:39:25.564Z,2570
2024-02-23T10:40:30.685Z,2594
2024-02-23T10:41:36.790Z,2632
2024-02-23T10:42:42.895Z,2610
2024-02-23T10:43:48.999Z,2588
2024-02-23T10:44:55.114Z,2491
2024-02-23T10:46:01.268Z,2463
2024-02-23T10:47:07.373Z,2540
2024-02-23T10:48:13.539Z,2541
2024-02-23T10:49:19.693Z,2576
2024-02-23T10:50:25.798Z,2577
2024-02-23T10:51:31.964Z,2600
2024-02-23T10:52:38.118Z,2652
2024-02-23T10:53:44.223Z,2570
2024-02-23T10:54:49.344Z,2514
2024-02-23T10:55:55.448Z,2478
2024-02-23T10:57:01.553Z,2494
2024-02-23T10:58:07.667Z,2519
2024-02-23T10:59:13.821Z,2563
2024-02-23T11:00:19.926Z,2513
2024-02-23T11:01:26.093Z,2549
2024-02-23T11:02:32.246Z,2504
2024-02-23T11:03:38.351Z,2490
2024-02-23T11:04:44.518Z,2468
2024-02-23T11:05:50.672Z,2415
2024-02-23T11:06:56.776Z,2371
2024-02-23T11:08:02.914Z,2339
2024-02-23T11:09:08.065Z,2250
2024-02-23T11:10:14.170Z,2180
2024-02-23T11:11:20.275Z,2147
2024-02-23T11:12:26.379Z,2130
2024-02-23T11:13:32.484Z,2120
2024-02-23T11:14:38.647Z,2136
2024-02-23T11:15:44.801Z,2173
2024-02-23T11:16:50.906Z,2181
2024-02-23T11:17:57.073Z,2270
2024-02-23T11:19:03.226Z,2338
2024-02-23T11:20:09.331Z,2400
2024-02-23T11:21:15.498Z,2446
2024-02-23T11:22:21.652Z,2436
2024-02-23T11:23:26.773Z,2428
2024-02-23T11:24:32.878Z,2401
2024-02-23T11:25:38.982Z,2382
2024-02-23T11:26:45.087Z,2343
2024-02-23T11:27:51.202Z,2288
2024-02-23T11:28:57.355Z,2263
2024-02-23T11:30:03.460Z,2247
2024-02-23T11:31:09.626Z,2198
2024-02-23T11:32:15.780Z,2111
2024-02-23T11:33:21.885Z,2069
2024-02-23T11:34:28.051Z,2066
2024-02-23T11:35:34.205Z,2078
2024-02-23T11:36:40.311Z,2137
2024-02-23T11:37:45.431Z,2113
2024-02-23T11:38:51.536Z,2059
2024-02-23T11:39:57.641Z,2001
2024-02-23T11:41:03.757Z,1985
2024-02-23T11:42:09.911Z,1958
2024-02-23T11:43:16.016Z,1883
2024-02-23T11:44:21.142Z,1840
2024-02-23T11:45:27.247Z,1831
2024-02-23T11:46:33.351Z,1864
2024-02-23T11:47:39.461Z,1894
2024-02-23T11:48:45.615Z,1905
2024-02-23T11:49:51.719Z,1883
2024-02-23T11:50:57.886Z,1865
2024-02-23T11:52:04.040Z,1850
2024-02-23T11:53:10.144Z,1853
2024-02-23T11:54:16.311Z,1856
2024-02-23T11:55:22.465Z,1934
2024-02-23T11:56:28.570Z,1965
2024-02-23T11:57:34.736Z,1961
2024-02-23T11:58:39.857Z,1956
2024-02-23T11:59:45.961Z,1925
2024-02-23T12:00:52.067Z,1908
2024-02-23T12:01:58.172Z,1922
2024-02-23T12:03:04.278Z,1919
2024-02-23T12:04:10.442Z,1984
2024-02-23T12:05:16.595Z,1998
2024-02-23T12:06:22.700Z,1999
2024-02-23T12:07:28.867Z,1998
2024-02-23T12:08:35.020Z,1980
2024-02-23T12:09:41.125Z,1986
2024-02-23T12:10:47.292Z,1979
2024-02-23T12:11:53.446Z,1982
2024-02-23T12:12:58.566Z,2030
2024-02-23T12:14:04.671Z,2028
2024-02-23T12:15:10.776Z,1949
2024-02-23T12:16:16.881Z,1911
2024-02-23T12:17:22.995Z,1965
2024-02-23T12:19:35.254Z,2090
2024-02-23T12:20:41.420Z,2169
2024-02-23T12:21:47.575Z,2224
2024-02-23T12:22:53.679Z,2214
2024-02-23T12:23:59.845Z,2244
2024-02-23T12:25:05.999Z,2110
2024-02-23T12:26:12.104Z,2042
2024-02-23T12:27:17.225Z,1987
2024-02-23T12:28:23.330Z,1920
2024-02-23T12:29:29.435Z,1945
2024-02-23T12:30:35.549Z,1953
2024-02-23T12:31:41.703Z,1960
2024-02-23T12:32:47.808Z,1958
2024-02-23T12:33:53.974Z,2069
2024-02-23T12:35:00.128Z,2028
2024-02-23T12:36:06.233Z,2075
2024-02-23T12:37:12.399Z,2040
2024-02-23T12:38:18.553Z,2033
2024-02-23T12:39:24.658Z,2010
2024-02-23T12:40:30.825Z,1884
2024-02-23T12:41:35.945Z,1793
2024-02-23T12:42:42.050Z,1736
2024-02-23T12:43:48.155Z,1685
2024-02-23T12:44:54.260Z,1602
2024-02-23T12:46:00.364Z,1582
2024-02-23T12:47:06.528Z,1579
2024-02-23T12:48:12.682Z,1648
2024-02-23T12:49:18.787Z,1786
2024-02-23T12:50:24.953Z,1853
2024-02-23T12:51:31.107Z,1923
2024-02-23T12:52:37.212Z,2059
2024-02-23T12:53:43.379Z,2103
2024-02-23T12:54:49.532Z,2106
2024-02-23T12:55:54.653Z,2053
2024-02-23T12:57:00.758Z,1927
2024-02-23T12:58:06.862Z,1760
2024-02-23T12:59:12.967Z,1681
2024-02-23T13:00:19.083Z,1687
2024-02-23T13:01:25.238Z,1659
2024-02-23T13:02:31.344Z,1693
2024-02-23T13:03:37.511Z,1714
2024-02-23T13:04:43.664Z,1803
2024-02-23T13:05:49.769Z,1880
2024-02-23T13:06:55.935Z,1878
2024-02-23T13:08:02.090Z,1878
2024-02-23T13:09:08.194Z,1829
2024-02-23T13:10:13.315Z,1699
2024-02-23T13:11:19.420Z,1628
2024-02-23T13:12:25.524Z,1623
2024-02-23T13:13:31.639Z,1634
2024-02-23T13:14:37.793Z,1653
2024-02-23T13:15:43.898Z,1618
2024-02-23T13:16:50.065Z,1548
2024-02-23T13:17:56.219Z,1489
2024-02-23T13:19:02.324Z,1493
2024-02-23T13:20:08.490Z,1547
2024-02-23T13:21:14.644Z,1612
2024-02-23T13:22:20.749Z,1660
2024-02-23T13:23:26.916Z,1723
2024-02-23T13:24:32.037Z,1787
2024-02-23T13:25:38.142Z,1839
2024-02-23T13:26:44.247Z,1838
2024-02-23T13:27:50.352Z,1750
2024-02-23T13:28:56.457Z,1699
2024-02-23T13:30:02.621Z,1622
2024-02-23T13:31:08.775Z,1602
2024-02-23T13:32:14.880Z,1586
2024-02-23T13:33:21.046Z,1635
2024-02-23T13:34:27.200Z,1637
2024-02-23T13:35:33.304Z,1565
2024-02-23T13:36:39.471Z,1556
2024-02-23T13:37:45.625Z,1474
2024-02-23T13:38:50.746Z,1465
2024-02-23T13:39:56.851Z,1500
2024-02-23T13:41:02.955Z,1518
2024-02-23T13:42:09.060Z,1527
2024-02-23T13:43:15.175Z,1475
2024-02-23T13:44:21.329Z,1454
2024-02-23T13:45:27.434Z,1475
2024-02-23T13:46:33.600Z,1496
2024-02-23T13:47:39.754Z,1504
2024-02-23T13:48:45.859Z,1499
2024-02-23T13:49:52.025Z,1456
2024-02-23T13:50:58.179Z,1410
2024-02-23T13:52:04.284Z,1353
2024-02-23T13:53:09.405Z,1300
2024-02-23T13:54:15.510Z,1278
2024-02-23T13:55:21.614Z,1266
2024-02-23T13:56:27.729Z,1259
2024-02-23T13:57:33.883Z,1242
2024-02-23T13:58:39.988Z,1203
2024-02-23T13:59:46.154Z,1175
2024-02-23T14:00:52.308Z,1167
2024-02-23T14:01:58.413Z,1161
2024-02-23T14:03:04.580Z,1145
2024-02-23T14:04:10.734Z,1168
2024-02-23T14:05:16.838Z,1189
2024-02-23T14:06:23.005Z,1182
2024-02-23T14:07:28.126Z,1174
2024-02-23T14:08:34.230Z,1139
2024-02-23T14:09:40.335Z,1072
2024-02-23T14:10:46.440Z,1009
2024-02-23T14:11:52.545Z,991
2024-02-23T14:12:58.709Z,986
2024-02-23T14:14:04.862Z,972
2024-02-23T14:15:10.967Z,955
2024-02-23T14:16:17.134Z,946
2024-02-23T14:17:23.288Z,960
2024-02-23T14:18:29.392Z,981
2024-02-23T14:19:35.559Z,968
2024-02-23T14:20:41.713Z,904
2024-02-23T14:21:46.834Z,915
2024-02-23T14:22:52.938Z,886
2024-02-23T14:23:59.043Z,853
2024-02-23T14:25:05.148Z,836
2024-02-23T14:26:11.263Z,772
2024-02-23T14:27:17.417Z,780
2024-02-23T14:28:23.521Z,756
2024-02-23T14:29:29.688Z,671
2024-02-23T14:30:35.842Z,626
2024-02-23T14:31:41.947Z,599
2024-02-23T14:32:48.113Z,577
2024-02-23T14:33:54.267Z,539
2024-02-23T14:35:00.372Z,530
2024-02-23T14:36:05.493Z,559
2024-02-23T14:37:11.598Z,593
2024-02-23T14:38:17.702Z,569
2024-02-23T14:39:23.817Z,620
2024-02-23T14:40:29.971Z,718
2024-02-23T14:41:36.075Z,735
2024-02-23T14:42:42.242Z,732
2024-02-23T14:43:48.396Z,742
2024-02-23T14:44:54.500Z,752
2024-02-23T14:46:00.638Z,766
2024-02-23T14:47:06.821Z,777
2024-02-23T14:48:12.926Z,778
2024-02-23T14:49:19.092Z,763
2024-02-23T14:50:24.213Z,767
2024-02-23T14:51:30.318Z,783
2024-02-23T14:52:36.423Z,842
2024-02-23T14:53:42.527Z,881
2024-02-23T14:54:48.632Z,874
2024-02-23T14:55:54.797Z,844
2024-02-23T14:57:00.951Z,768
2024-02-23T14:58:07.056Z,728
2024-02-23T14:59:13.222Z,722
2024-02-23T15:00:19.376Z,736
2024-02-23T15:01:25.480Z,736
2024-02-23T15:02:31.647Z,728
2024-02-23T15:03:37.801Z,713
2024-02-23T15:04:42.922Z,706
2024-02-23T15:05:49.027Z,701
2024-02-23T15:06:55.132Z,684
2024-02-23T15:08:01.236Z,659
2024-02-23T15:10:13.505Z,639
2024-02-23T15:11:19.609Z,646
2024-02-23T15:12:25.776Z,632
2024-02-23T15:13:31.930Z,615
2024-02-23T15:14:38.034Z,602
2024-02-23T15:15:44.202Z,605
2024-02-23T15:16:50.356Z,615
2024-02-23T15:17:56.460Z,608
2024-02-23T15:19:01.581Z,600
2024-02-23T15:20:07.686Z,563
2024-02-23T15:21:13.791Z,561
2024-02-23T15:22:19.905Z,552
2024-02-23T15:23:26.059Z,537
2024-02-23T15:24:32.164Z,533
2024-02-23T15:25:37.290Z,523